createdAt,value
2022-08-02T00:00:58.772Z,17.20
2022-08-02T00:03:27.417Z,16.91
2022-08-02T00:05:54.191Z,16.93
2022-08-02T00:08:21.842Z,16.98
2022-08-02T00:10:48.922Z,16.90
2022-08-02T00:13:15.779Z,16.94
2022-08-02T00:15:42.483Z,16.97
2022-08-02T00:18:09.334Z,16.83
2022-08-02T00:20:36.287Z,16.85
2022-08-02T00:23:03.462Z,16.84
2022-08-02T00:25:30.167Z,16.78
2022-08-02T00:27:56.808Z,16.88
2022-08-02T00:30:23.493Z,16.93
2022-08-02T00:32:50.333Z,16.83
2022-08-02T00:35:17.313Z,16.83
2022-08-02T00:37:46.414Z,16.86
2022-08-02T00:40:13.208Z,16.69
2022-08-02T00:42:40.276Z,16.73
2022-08-02T00:45:07.354Z,16.74
2022-08-02T00:47:34.233Z,16.69
2022-08-02T00:50:01.018Z,16.75
2022-08-02T00:52:27.668Z,16.58
2022-08-02T00:54:54.438Z,16.47
2022-08-02T00:57:21.431Z,16.40
2022-08-02T00:59:49.179Z,16.42
2022-08-02T01:02:16.451Z,16.26
2022-08-02T01:04:43.597Z,16.29
2022-08-02T01:07:13.188Z,16.38
2022-08-02T01:09:44.370Z,16.40
2022-08-02T01:12:12.101Z,16.33
2022-08-02T01:14:39.950Z,16.37
2022-08-02T01:17:08.542Z,16.41
2022-08-02T01:19:51.398Z,16.40
2022-08-02T01:23:00.166Z,16.28
2022-08-02T01:25:36.063Z,16.30
2022-08-02T01:28:14.989Z,16.27
2022-08-02T01:30:43.299Z,16.19
2022-08-02T01:33:12.995Z,16.21
2022-08-02T01:35:47.422Z,16.13
2022-08-02T01:38:22.673Z,16.00
2022-08-02T01:40:49.961Z,16.15
2022-08-02T01:43:17.577Z,16.16
2022-08-02T01:45:45.905Z,16.22
2022-08-02T01:48:13.497Z,15.87
2022-08-02T01:50:41.379Z,15.74
2022-08-02T01:53:09.443Z,15.52
2022-08-02T01:55:57.452Z,15.52
2022-08-02T01:58:27.112Z,15.33
2022-08-02T02:00:55.999Z,15.28
2022-08-02T02:03:24.844Z,15.44
2022-08-02T02:05:56.698Z,15.69
2022-08-02T02:08:29.516Z,15.64
2022-08-02T02:12:06.175Z,15.56
2022-08-02T02:13:46.169Z,15.27
2022-08-02T02:16:17.298Z,15.26
2022-08-02T02:18:44.621Z,15.26
2022-08-02T02:21:12.089Z,15.53
2022-08-02T02:23:38.838Z,15.62
2022-08-02T02:26:08.021Z,15.56
2022-08-02T02:28:37.718Z,15.45
2022-08-02T02:31:09.604Z,15.60
2022-08-02T02:33:40.428Z,15.50
2022-08-02T02:36:08.159Z,15.43
2022-08-02T02:38:36.223Z,15.37
2022-08-02T02:41:04.458Z,15.50
2022-08-02T02:43:31.822Z,15.57
2022-08-02T02:45:58.896Z,15.62
2022-08-02T02:48:27.868Z,15.65
2022-08-02T02:50:54.959Z,15.74
2022-08-02T02:53:22.761Z,15.75
2022-08-02T02:56:02.387Z,15.83
2022-08-02T02:58:30.321Z,16.17
2022-08-02T03:01:15.958Z,16.06
2022-08-02T03:03:47.090Z,16.16
2022-08-02T03:06:15.833Z,15.77
2022-08-02T03:08:43.054Z,15.67
2022-08-02T03:11:10.272Z,15.62
2022-08-02T03:13:37.941Z,15.61
2022-08-02T03:16:04.943Z,15.66
2022-08-02T03:18:39.821Z,15.66
2022-08-02T03:21:08.137Z,15.70
2022-08-02T03:23:35.383Z,15.98
2022-08-02T03:26:03.507Z,16.06
2022-08-02T03:28:30.662Z,16.08
2022-08-02T03:30:57.547Z,16.07
2022-08-02T03:33:24.900Z,16.31
2022-08-02T03:35:52.897Z,16.07
2022-08-02T03:38:22.180Z,15.79
2022-08-02T03:40:56.385Z,15.77
2022-08-02T03:43:23.991Z,15.69
2022-08-02T03:45:56.008Z,15.67
2022-08-02T03:48:34.274Z,15.73
2022-08-02T03:51:02.054Z,15.76
2022-08-02T03:53:29.225Z,15.74
2022-08-02T03:55:56.133Z,15.69
2022-08-02T03:58:23.448Z,15.75
2022-08-02T04:00:51.778Z,15.81
2022-08-02T04:03:20.186Z,15.89
2022-08-02T04:06:03.393Z,15.90
2022-08-02T04:08:36.891Z,15.95
2022-08-02T04:11:30.981Z,16.02
2022-08-02T04:14:05.891Z,16.03
2022-08-02T04:16:42.381Z,16.09
2022-08-02T04:19:10.409Z,16.12
2022-08-02T04:21:51.362Z,16.12
2022-08-02T04:24:22.929Z,16.13
2022-08-02T04:27:48.870Z,16.12
2022-08-02T04:29:56.180Z,16.15
2022-08-02T04:32:23.244Z,16.18
2022-08-02T04:35:17.817Z,16.21
2022-08-02T04:37:38.249Z,16.26
2022-08-02T04:40:24.947Z,16.30
2022-08-02T04:42:52.127Z,16.32
2022-08-02T04:45:19.966Z,16.39
2022-08-02T04:48:03.680Z,16.39
2022-08-02T04:50:31.625Z,16.42
2022-08-02T04:52:58.348Z,16.47
2022-08-02T04:55:29.164Z,16.57
2022-08-02T04:57:58.013Z,16.64
2022-08-02T05:00:25.733Z,16.75
2022-08-02T05:02:53.009Z,16.81
2022-08-02T05:05:20.918Z,16.76
2022-08-02T05:07:47.557Z,16.88
2022-08-02T05:10:15.308Z,17.12
2022-08-02T05:12:41.985Z,17.16
2022-08-02T05:15:12.680Z,17.23
2022-08-02T05:17:47.953Z,17.19
2022-08-02T05:20:16.291Z,17.18
2022-08-02T05:22:43.065Z,17.25
2022-08-02T05:25:10.111Z,17.36
2022-08-02T05:27:36.783Z,17.63
2022-08-02T05:30:03.927Z,17.71
2022-08-02T05:32:30.652Z,17.85
2022-08-02T05:34:57.200Z,17.99
2022-08-02T05:42:50.301Z,18.27
2022-08-02T05:45:17.923Z,18.24
2022-08-02T05:47:44.540Z,18.44
2022-08-02T05:50:11.248Z,18.17
2022-08-02T05:52:50.980Z,18.22
2022-08-02T05:55:55.119Z,18.26
2022-08-02T05:58:27.255Z,18.42
2022-08-02T06:01:15.553Z,18.54
2022-08-02T06:03:52.275Z,18.71
2022-08-02T06:06:23.638Z,18.81
2022-08-02T06:08:59.774Z,18.74
2022-08-02T06:11:34.248Z,18.76
2022-08-02T06:14:01.725Z,18.81
2022-08-02T06:16:32.165Z,18.83
2022-08-02T06:19:00.396Z,19.12
2022-08-02T06:22:33.961Z,19.07
2022-08-02T06:24:17.865Z,19.24
2022-08-02T06:26:52.972Z,19.32
2022-08-02T06:29:20.608Z,19.69
2022-08-02T06:31:53.385Z,19.99
2022-08-02T06:34:20.070Z,19.83
2022-08-02T06:36:57.759Z,19.89
2022-08-02T06:39:50.323Z,20.09
2022-08-02T06:42:29.570Z,20.08
2022-08-02T06:44:59.364Z,20.19
2022-08-02T06:47:26.860Z,20.36
2022-08-02T06:49:58.519Z,20.27
2022-08-02T06:52:30.752Z,20.41
2022-08-02T06:55:01.384Z,20.66
2022-08-02T06:57:28.853Z,20.63
2022-08-02T06:59:55.642Z,20.98
2022-08-02T07:02:26.608Z,20.53
2022-08-02T07:04:57.468Z,20.75
2022-08-02T07:07:24.256Z,21.10
2022-08-02T07:09:56.815Z,21.46
2022-08-02T07:12:31.751Z,21.77
2022-08-02T07:15:02.529Z,21.64
2022-08-02T07:17:32.028Z,21.44
2022-08-02T07:19:59.452Z,21.60
2022-08-02T07:22:27.442Z,22.14
2022-08-02T07:24:55.303Z,22.45
2022-08-02T07:27:22.193Z,22.67
2022-08-02T07:29:48.693Z,22.28
2022-08-02T07:32:16.714Z,22.94
2022-08-02T07:34:50.331Z,23.18
2022-08-02T07:37:35.305Z,22.76
2022-08-02T07:40:14.179Z,22.47
2022-08-02T07:42:42.841Z,22.46
2022-08-02T07:45:09.805Z,22.54
2022-08-02T07:47:40.001Z,22.78
2022-08-02T07:50:07.153Z,23.39
2022-08-02T07:52:34.045Z,22.83
2022-08-02T07:55:00.627Z,22.71
2022-08-02T07:57:27.494Z,23.16
2022-08-02T07:59:54.085Z,23.52
2022-08-02T08:02:22.516Z,23.97
2022-08-02T08:04:53.468Z,24.18
2022-08-02T08:07:20.399Z,23.70
2022-08-02T08:09:48.109Z,23.62
2022-08-02T08:12:16.259Z,23.14
2022-08-02T08:14:43.445Z,23.98
2022-08-02T08:17:09.763Z,23.89
2022-08-02T08:19:51.640Z,23.10
2022-08-02T08:22:19.240Z,23.22
2022-08-02T08:24:45.630Z,23.42
2022-08-02T08:27:14.660Z,24.04
2022-08-02T08:29:44.441Z,24.23
2022-08-02T08:32:16.146Z,24.23
2022-08-02T08:34:43.932Z,23.86
2022-08-02T08:37:10.332Z,24.18
2022-08-02T08:39:56.856Z,24.82
2022-08-02T08:42:26.023Z,25.07
2022-08-02T08:44:52.498Z,24.51
2022-08-02T08:47:19.161Z,24.86
2022-08-02T08:49:52.673Z,25.11
2022-08-02T08:52:20.348Z,25.11
2022-08-02T08:54:48.554Z,25.22
2022-08-02T08:57:15.398Z,24.95
2022-08-02T08:59:42.506Z,24.75
2022-08-02T09:02:16.506Z,24.90
2022-08-02T09:04:54.590Z,24.55
2022-08-02T09:07:21.894Z,24.73
2022-08-02T09:09:48.215Z,24.37
2022-08-02T09:12:15.533Z,24.93
2022-08-02T09:14:42.271Z,25.29
2022-08-02T09:17:10.215Z,25.54
2022-08-02T09:19:37.117Z,24.88
2022-08-02T09:22:05.426Z,23.97
2022-08-02T09:24:40.894Z,24.67
2022-08-02T09:27:11.309Z,24.63
2022-08-02T09:29:48.631Z,24.13
2022-08-02T09:32:23.992Z,23.88
2022-08-02T09:34:51.577Z,23.52
2022-08-02T09:37:25.192Z,23.75
2022-08-02T09:39:51.597Z,23.73
2022-08-02T09:42:24.801Z,23.90
2022-08-02T09:44:58.468Z,24.29
2022-08-02T09:47:25.516Z,25.47
2022-08-02T09:49:53.913Z,26.00
2022-08-02T09:52:22.520Z,26.11
2022-08-02T09:55:04.980Z,25.25
2022-08-02T09:57:33.529Z,25.96
2022-08-02T10:00:00.190Z,26.45
2022-08-02T10:02:26.966Z,26.24
2022-08-02T10:04:54.189Z,24.92
2022-08-02T10:07:22.262Z,25.08
2022-08-02T10:12:23.134Z,25.93
2022-08-02T10:14:50.188Z,26.43
2022-08-02T10:17:17.046Z,26.24
2022-08-02T10:20:02.491Z,25.91
2022-08-02T10:22:29.959Z,25.30
2022-08-02T10:24:56.274Z,25.60
2022-08-02T10:27:25.095Z,25.63
2022-08-02T10:29:54.083Z,25.88
2022-08-02T10:32:26.588Z,25.88
2022-08-02T10:34:58.739Z,25.00
2022-08-02T10:37:45.959Z,24.74
2022-08-02T10:40:23.184Z,24.94
2022-08-02T10:42:50.767Z,25.02
2022-08-02T10:45:18.604Z,24.63
2022-08-02T10:48:04.551Z,24.35
2022-08-02T10:50:57.200Z,24.98
2022-08-02T10:53:27.927Z,25.59
2022-08-02T10:55:55.659Z,25.94
2022-08-02T10:58:26.325Z,25.83
2022-08-02T11:00:55.693Z,26.06
2022-08-02T11:03:27.862Z,25.72
2022-08-02T11:06:25.835Z,25.94
2022-08-02T11:09:11.246Z,26.61
2022-08-02T11:11:57.506Z,26.59
2022-08-02T11:14:23.962Z,27.36
2022-08-02T11:16:56.171Z,27.05
2022-08-02T11:19:26.882Z,27.12
2022-08-02T11:22:03.997Z,27.12
2022-08-02T11:24:34.139Z,27.03
2022-08-02T11:27:01.275Z,26.84
2022-08-02T11:29:41.254Z,26.59
2022-08-02T11:32:08.775Z,26.29
2022-08-02T11:34:37.300Z,26.88
2022-08-02T11:37:04.342Z,26.94
2022-08-02T11:39:30.825Z,27.02
2022-08-02T11:41:58.711Z,26.53
2022-08-02T11:44:29.405Z,26.39
2022-08-02T11:46:55.777Z,26.61
2022-08-02T11:49:22.202Z,27.12
2022-08-02T11:51:55.327Z,27.64
2022-08-02T11:54:25.410Z,28.28
2022-08-02T11:56:51.768Z,28.33
2022-08-02T11:59:18.087Z,28.19
2022-08-02T12:01:46.098Z,27.60
2022-08-02T12:04:16.440Z,27.65
2022-08-02T12:06:43.476Z,27.81
2022-08-02T12:09:17.638Z,27.69
2022-08-02T12:11:48.214Z,28.26
2022-08-02T12:14:14.620Z,28.44
2022-08-02T12:16:59.696Z,28.14
2022-08-02T12:19:29.238Z,27.68
2022-08-02T12:22:14.883Z,27.82
2022-08-02T12:24:44.382Z,27.67
2022-08-02T12:27:10.845Z,28.34
2022-08-02T12:29:57.871Z,28.10
2022-08-02T12:32:25.069Z,28.35
2022-08-02T12:35:05.329Z,28.64
2022-08-02T12:37:31.657Z,28.39
2022-08-02T12:39:57.987Z,28.56
2022-08-02T12:42:25.787Z,28.54
2022-08-02T12:44:53.400Z,28.54
2022-08-02T12:47:21.559Z,28.29
2022-08-02T12:50:08.089Z,28.99
2022-08-02T12:52:34.568Z,28.68
2022-08-02T12:55:00.889Z,29.24
2022-08-02T12:57:27.323Z,28.87
2022-08-02T12:59:53.923Z,28.08
2022-08-02T13:02:21.474Z,27.86
2022-08-02T13:04:50.087Z,27.77
2022-08-02T13:07:17.325Z,27.47
2022-08-02T13:09:45.581Z,27.55
2022-08-02T13:12:12.323Z,28.40
2022-08-02T13:14:41.819Z,28.03
2022-08-02T13:17:08.998Z,28.07
2022-08-02T13:19:36.791Z,27.57
2022-08-02T13:22:03.986Z,27.40
2022-08-02T13:24:39.634Z,27.39
2022-08-02T13:27:17.415Z,28.13
2022-08-02T13:29:43.897Z,28.60
2022-08-02T13:32:11.561Z,28.57
2022-08-02T13:34:38.210Z,28.42
2022-08-02T13:37:04.618Z,28.43
2022-08-02T13:39:31.005Z,28.07
2022-08-02T13:41:57.330Z,28.16
2022-08-02T13:44:23.645Z,28.03
2022-08-02T13:46:49.942Z,27.69
2022-08-02T13:49:19.914Z,27.67
2022-08-02T13:51:47.647Z,27.81
2022-08-02T13:54:14.511Z,27.92
2022-08-02T13:56:40.840Z,27.56
2022-08-02T13:59:53.926Z,27.75
2022-08-02T14:01:54.242Z,27.94
2022-08-02T14:04:20.697Z,27.82
2022-08-02T14:06:47.010Z,27.66
2022-08-02T14:09:16.988Z,27.48
2022-08-02T14:11:43.689Z,27.68
2022-08-02T14:14:16.477Z,27.87
2022-08-02T14:16:44.331Z,27.69
2022-08-02T14:19:15.956Z,28.20
2022-08-02T14:21:46.523Z,28.22
2022-08-02T14:24:14.194Z,28.09
2022-08-02T14:26:40.528Z,27.66
2022-08-02T14:29:06.902Z,27.75
2022-08-02T14:31:33.281Z,27.90
2022-08-02T14:33:59.667Z,28.02
2022-08-02T14:36:27.696Z,27.67
2022-08-02T14:38:54.684Z,27.53
2022-08-02T14:41:21.000Z,27.91
2022-08-02T14:44:05.647Z,27.81
2022-08-02T14:46:32.822Z,28.17
2022-08-02T14:49:02.292Z,28.38
2022-08-02T14:51:29.800Z,28.22
2022-08-02T14:54:02.730Z,27.87
2022-08-02T14:56:30.049Z,28.05
2022-08-02T14:58:56.439Z,28.43
2022-08-02T15:01:26.177Z,28.24
2022-08-02T15:06:19.189Z,28.24
2022-08-02T15:08:45.620Z,27.86
2022-08-02T15:11:12.068Z,27.83
2022-08-02T15:13:42.374Z,27.80
2022-08-02T15:16:09.875Z,27.95
2022-08-02T15:18:36.417Z,27.82
2022-08-02T15:21:09.728Z,27.91
2022-08-02T15:23:50.145Z,28.06
2022-08-02T15:26:16.591Z,27.93
2022-08-02T15:28:43.006Z,28.24
2022-08-02T15:31:09.344Z,28.25
2022-08-02T15:33:35.718Z,28.37
2022-08-02T15:36:02.349Z,28.22
2022-08-02T15:38:28.709Z,28.16
2022-08-02T15:40:55.019Z,28.16
2022-08-02T15:43:21.622Z,28.17
2022-08-02T15:45:47.987Z,28.03
2022-08-02T15:48:14.478Z,28.07
2022-08-02T15:50:40.832Z,28.15
2022-08-02T15:53:07.245Z,28.08
2022-08-02T15:55:52.063Z,28.09
2022-08-02T15:58:22.612Z,28.10
2022-08-02T16:00:49.132Z,28.14
2022-08-02T16:03:15.540Z,28.08
2022-08-02T16:05:41.990Z,28.25
2022-08-02T16:08:08.308Z,28.07
2022-08-02T16:10:34.981Z,27.92
2022-08-02T16:13:20.026Z,27.78
2022-08-02T16:15:46.331Z,27.75
2022-08-02T16:18:12.709Z,27.79
2022-08-02T16:20:39.102Z,27.84
2022-08-02T16:23:05.562Z,27.83
2022-08-02T16:25:32.017Z,27.83
2022-08-02T16:28:06.058Z,27.88
2022-08-02T16:30:34.363Z,27.70
2022-08-02T16:33:00.810Z,27.88
2022-08-02T16:35:28.282Z,27.86
2022-08-02T16:37:54.713Z,27.83
2022-08-02T16:40:21.450Z,27.94
2022-08-02T16:42:50.259Z,27.81
2022-08-02T16:45:17.189Z,27.70
2022-08-02T16:47:55.858Z,27.64
2022-08-02T16:50:28.124Z,27.73
2022-08-02T16:52:58.809Z,27.73
2022-08-02T16:55:25.962Z,27.70
2022-08-02T16:57:56.965Z,27.59
2022-08-02T17:00:23.761Z,27.66
2022-08-02T17:02:50.100Z,27.81
2022-08-02T17:05:16.499Z,27.86
2022-08-02T17:08:10.476Z,27.90
2022-08-02T17:10:29.924Z,27.94
2022-08-02T17:12:56.617Z,27.86
2022-08-02T17:15:46.990Z,27.87
2022-08-02T17:18:10.411Z,27.70
2022-08-02T17:20:36.841Z,27.60
2022-08-02T17:23:03.909Z,27.55
2022-08-02T17:25:31.806Z,27.51
2022-08-02T17:27:58.563Z,27.44
2022-08-02T17:30:26.914Z,27.33
2022-08-02T17:32:53.807Z,27.30
2022-08-02T17:35:20.166Z,27.25
2022-08-02T17:37:54.589Z,27.18
2022-08-02T17:40:26.324Z,27.13
2022-08-02T17:42:52.646Z,27.11
2022-08-02T17:45:25.180Z,27.12
2022-08-02T17:48:04.613Z,27.09
2022-08-02T17:50:32.029Z,27.13
2022-08-02T17:52:58.784Z,27.22
2022-08-02T17:55:25.406Z,27.25
2022-08-02T17:57:57.464Z,27.19
2022-08-02T18:00:38.090Z,27.14
2022-08-02T18:03:06.074Z,27.09
2022-08-02T18:08:23.259Z,26.88
2022-08-02T18:10:50.444Z,26.84
2022-08-02T18:13:16.876Z,26.78
2022-08-02T18:15:45.791Z,26.65
2022-08-02T18:18:12.480Z,26.59
2022-08-02T18:20:38.775Z,26.50
2022-08-02T18:23:06.146Z,26.46
2022-08-02T18:25:46.765Z,26.40
2022-08-02T18:28:15.151Z,26.26
2022-08-02T18:30:41.745Z,26.25
2022-08-02T18:33:57.762Z,26.14
2022-08-02T18:35:55.460Z,26.00
2022-08-02T18:38:22.268Z,25.92
2022-08-02T18:43:38.166Z,25.70
2022-08-02T18:46:15.680Z,25.58
2022-08-02T18:48:44.245Z,25.51
2022-08-02T18:51:13.795Z,25.37
2022-08-02T18:53:42.109Z,25.27
2022-08-02T18:56:19.424Z,25.19
2022-08-02T18:58:50.129Z,25.12
2022-08-02T19:01:31.413Z,25.02
2022-08-02T19:03:59.691Z,24.90
2022-08-02T19:06:27.458Z,24.93
2022-08-02T19:09:03.555Z,24.79
2022-08-02T19:11:37.993Z,24.66
2022-08-02T19:14:05.091Z,24.56
2022-08-02T19:16:37.295Z,24.48
2022-08-02T19:19:05.105Z,24.34
2022-08-02T19:22:16.458Z,24.25
2022-08-02T19:24:17.869Z,24.31
2022-08-02T19:26:51.331Z,24.26
2022-08-02T19:29:42.232Z,24.22
2022-08-02T19:32:06.286Z,24.12
2022-08-02T19:34:52.561Z,23.87
2022-08-02T19:37:18.925Z,23.81
2022-08-02T19:39:45.826Z,23.94
2022-08-02T19:42:12.432Z,24.02
2022-08-02T19:44:43.229Z,23.73
2022-08-02T19:47:12.179Z,23.72
2022-08-02T19:49:40.172Z,23.65
2022-08-02T19:52:27.343Z,23.39
2022-08-02T19:54:55.284Z,23.31
2022-08-02T19:57:23.028Z,23.15
2022-08-02T19:59:51.373Z,23.26
2022-08-02T20:02:18.504Z,23.06
2022-08-02T20:04:49.924Z,22.90
2022-08-02T20:07:49.847Z,22.95
2022-08-02T20:10:05.972Z,22.77
2022-08-02T20:12:37.510Z,22.70
2022-08-02T20:15:07.691Z,22.66
2022-08-02T20:17:47.283Z,22.68
2022-08-02T20:20:14.294Z,22.62
2022-08-02T20:22:59.114Z,22.50
2022-08-02T20:25:25.759Z,22.43
2022-08-02T20:27:55.717Z,22.35
2022-08-02T20:30:22.157Z,22.31
2022-08-02T20:32:58.897Z,22.28
2022-08-02T20:35:41.009Z,22.10
2022-08-02T20:38:09.381Z,22.29
2022-08-02T20:40:38.331Z,22.24
2022-08-02T20:43:04.626Z,22.14
2022-08-02T20:45:34.077Z,22.18
2022-08-02T20:48:00.401Z,22.24
2022-08-02T20:50:45.650Z,22.14
2022-08-02T20:53:23.542Z,22.05
2022-08-02T20:55:52.718Z,22.12
2022-08-02T20:58:19.408Z,22.05
2022-08-02T21:00:46.415Z,22.13
2022-08-02T21:03:14.315Z,22.02
2022-08-02T21:05:54.138Z,22.00
2022-08-02T21:08:22.353Z,21.82
2022-08-02T21:10:51.835Z,21.71
2022-08-02T21:13:25.937Z,21.67
2022-08-02T21:16:13.684Z,21.58
2022-08-02T21:18:46.213Z,21.49
2022-08-02T21:24:01.433Z,21.34
2022-08-02T21:26:31.309Z,21.28
2022-08-02T21:29:03.091Z,21.25
2022-08-02T21:31:33.462Z,21.11
2022-08-02T21:34:02.740Z,21.15
2022-08-02T21:36:31.928Z,21.12
2022-08-02T21:39:00.015Z,21.08
2022-08-02T21:41:40.039Z,21.15
2022-08-02T21:44:18.616Z,21.17
2022-08-02T21:46:49.801Z,21.00
2022-08-02T21:49:17.208Z,20.94
2022-08-02T21:51:43.733Z,20.88
2022-08-02T21:57:02.436Z,20.91
2022-08-02T21:59:30.463Z,21.10
2022-08-02T22:01:59.212Z,20.98
2022-08-02T22:04:26.179Z,20.94
2022-08-02T22:06:56.117Z,20.80
2022-08-02T22:09:43.568Z,20.66
2022-08-02T22:12:10.334Z,20.72
2022-08-02T22:14:39.415Z,20.57
2022-08-02T22:17:08.738Z,20.33
2022-08-02T22:19:39.963Z,20.28
2022-08-02T22:22:18.862Z,20.30
2022-08-02T22:24:45.146Z,20.10
2022-08-02T22:27:11.661Z,20.27
2022-08-02T22:29:40.087Z,20.13
2022-08-02T22:32:06.919Z,20.23
2022-08-02T22:34:51.647Z,20.19
2022-08-02T22:38:16.884Z,20.11
2022-08-02T22:40:09.267Z,20.09
2022-08-02T22:42:36.001Z,20.03
2022-08-02T22:45:02.438Z,19.97
2022-08-02T22:47:29.710Z,19.91
2022-08-02T22:50:05.193Z,19.88
2022-08-02T22:52:38.130Z,19.92
2022-08-02T22:55:04.567Z,19.94
2022-08-02T22:57:31.432Z,19.90
2022-08-02T22:58:43.167Z,27.00
2022-08-02T22:58:59.555Z,25.80
2022-08-02T22:59:03.801Z,20.92
2022-08-02T22:59:10.714Z,21.40
2022-08-02T22:59:58.166Z,19.83
2022-08-02T23:02:24.986Z,19.87
2022-08-02T23:04:51.650Z,19.68
2022-08-02T23:07:18.014Z,19.68
2022-08-02T23:09:44.370Z,19.55
2022-08-02T23:12:10.696Z,19.55
2022-08-02T23:14:37.004Z,19.51
2022-08-02T23:17:22.003Z,19.44
2022-08-02T23:19:51.301Z,19.47
2022-08-02T23:22:18.318Z,19.37
2022-08-02T23:24:45.541Z,19.31
2022-08-02T23:27:11.851Z,19.22
2022-08-02T23:29:38.141Z,19.21
2022-08-02T23:32:04.421Z,19.26
2022-08-02T23:34:32.960Z,19.21
2022-08-02T23:36:59.394Z,19.19
2022-08-02T23:39:25.727Z,19.32
2022-08-02T23:41:54.879Z,19.33
2022-08-02T23:44:21.899Z,19.17
2022-08-02T23:46:48.220Z,19.15
2022-08-02T23:49:15.961Z,19.15
2022-08-02T23:51:42.562Z,19.11
2022-08-02T23:54:09.659Z,19.07
2022-08-02T23:56:36.238Z,18.87
2022-08-02T23:59:02.663Z,19.04
